Butler, MO (64730)

7:27 AM CDT on October 24, 2014 (GMT -0500)
BATES CO EMA | Change Station
CLOSE
Current Station
Personal Weather Station
Location: Butler, MO
Elevation: 869 ft
Nearby Weather Stations

Elev 869 ft 38.26 °N, 94.33 °W | Updated 2 minutes ago

Fog
Fog
53.1 °F
Feels Like 53.1 °F
N
0.0
Wind Variable Wind from SSE
Gusts 0.0 mph

Today
High -- | Low -- °F
--% Chance of Precip.
Yesterday
High -- | Low -- °F
Precip. -- in
7:35 AM 6:27 PM
New Moon, 0% visible
Pressure 30.10 in
Visibility 0.2 miles
Clouds Overcast 100 ft
Dew Point 53 °F
Humidity 100%
Rainfall 0.00 in
Snow Depth Not available.
UV 0 out of 12
Pollen 3.70 out of 12
Air Quality Not available.
Flu Activity No Activity
METAR KGLY 241215Z AUTO 00000KT M1/4SM FG OVC001 10/10 A3010 RMK AO2 VSBY M1/4V5

More Conditions Fewer Conditions

Pressure 30.10 in
Visibility 0.2 miles
Clouds Overcast 100 ft
Dew Point 53 °F
Humidity 100%
Rainfall 0.00 in
Snow Depth Not available.
UV 0 out of 12
Pollen 3.70 out of 12
Air Quality Not available.
Flu Activity No Activity
METAR KGLY 241215Z AUTO 00000KT M1/4SM FG OVC001 10/10 A3010 RMK AO2 VSBY M1/4V5

More Conditions Fewer Conditions

10-Day Weather Forecast

Almanac

Astronomy

Oct. 24, 2014 Rise Set
Actual Time 7:35 AM CDT 6:27 PM CDT
Civil Twilight 7:08 AM CDT 6:54 PM CDT
Nautical Twilight 6:37 AM CDT 7:24 PM CDT
Astronomical Twilight 6:06 AM CDT 7:55 PM CDT
Moon 8:14 AM CDT 7:08 PM CDT
Length of Visible Light 11h 46m
Length of Day
10h 52m
Tomorrow will be 2m 17s shorter.
New Moon, 0% of the Moon is Illuminated
Today
New Moon
Oct 30
First Quarter
Nov 6
Full
Nov 14
Last Quarter
Nov 22
New

Today's Extremes

State Highs State Lows

Community

WunderPhotos

Upload Photos

1,764,533 photos uploaded!

Nearby

Snow Depth

Station Depth Elevation
No new snow has been reported.

Earthquake Activity

City Distance Mag. Time & Date
No recent earthquake activity has been reported nearby.
Minimum magnitude displayed is 2.5.

Coastal Water Temperatures

Place Temperature
No Stations Reporting

Nearby Weather Stations